Time;durP1;ratioP1;P1;durP2;ratioP2;P2;SDS_P1;SDS_P2;PMS_P1;PMS_P2;Temp;Humidity;BMP_temperature;BMP_pressure;BME280_temperature;BME280_humidity;BME280_pressure;Samples;Min_cycle;Max_cycle;Signal;HPM_P1;HPM_P2
2022/10/21 00:02:09;;;;;;;56.42;39.55;;;19.50;1.00;;;;;;5050903;28;20037;-62
2022/10/21 00:04:35;;;;;;;66.05;41.53;;;19.50;1.00;;;;;;5046858;28;20032;-62
2022/10/21 00:07:01;;;;;;;60.05;41.75;;;19.50;1.00;;;;;;5052446;28;20531;-62
2022/10/21 00:09:26;;;;;;;60.92;40.88;;;19.50;1.00;;;;;;5047657;28;20040;-62
2022/10/21 00:11:52;;;;;;;62.42;42.88;;;19.50;1.00;;;;;;5049480;28;20367;-62
2022/10/21 00:14:18;;;;;;;64.88;43.05;;;19.50;1.00;;;;;;5041914;28;20067;-62
2022/10/21 00:16:44;;;;;;;64.28;42.17;;;19.40;1.00;;;;;;5048943;28;20051;-62
2022/10/21 00:19:10;;;;;;;66.90;41.58;;;19.50;1.00;;;;;;5050780;28;20542;-62
2022/10/21 00:21:36;;;;;;;61.33;40.05;;;19.40;1.00;;;;;;5053645;28;20025;-62
2022/10/21 00:24:02;;;;;;;58.95;40.13;;;19.50;1.00;;;;;;5048951;28;20053;-62
2022/10/21 00:26:27;;;;;;;64.32;40.58;;;19.40;1.00;;;;;;5053169;28;20109;-62
2022/10/21 00:28:57;;;;;;;63.67;41.80;;;19.40;1.00;;;;;;5051421;28;20024;-62
2022/10/21 00:31:23;;;;;;;59.58;40.55;;;19.40;1.00;;;;;;5053560;28;20052;-62
2022/10/21 00:33:49;;;;;;;62.00;39.92;;;19.40;1.00;;;;;;5050746;28;20036;-64
2022/10/21 00:36:14;;;;;;;57.72;39.92;;;19.40;1.00;;;;;;5053642;28;20536;-62
2022/10/21 00:38:42;;;;;;;59.20;41.08;;;19.40;1.00;;;;;;5052233;28;20399;-62
2022/10/21 00:41:08;;;;;;;58.25;40.10;;;19.40;1.00;;;;;;5052102;28;20028;-62
2022/10/21 00:44:03;;;;;;;60.85;38.95;;;19.40;1.00;;;;;;5050882;28;20033;-62
2022/10/21 00:46:40;;;;;;;;;;;19.40;1.00;;;;;;5066435;28;20386;-62
2022/10/21 00:49:14;;;;;;;53.83;36.67;;;19.30;1.00;;;;;;5049508;28;19909;-62
2022/10/21 00:51:40;;;;;;;55.22;36.75;;;19.30;1.00;;;;;;5049442;28;20032;-62
2022/10/21 00:54:06;;;;;;;56.08;38.15;;;19.30;1.00;;;;;;5041509;28;20040;-62
2022/10/21 00:56:33;;;;;;;57.17;36.85;;;19.30;1.00;;;;;;5053048;28;20033;-62
2022/10/21 00:59:01;;;;;;;55.85;38.95;;;19.30;1.00;;;;;;5052246;28;20060;-62
2022/10/21 01:01:27;;;;;;;54.25;38.30;;;19.30;1.00;;;;;;5053069;28;20029;-62
2022/10/21 01:03:53;;;;;;;52.45;36.53;;;19.20;1.00;;;;;;5045352;28;20036;-62
2022/10/21 01:06:22;;;;;;;50.40;36.28;;;19.30;1.00;;;;;;5048931;28;20029;-62
2022/10/21 01:08:49;;;;;;;55.00;37.30;;;19.30;1.00;;;;;;5042501;28;20035;-62
2022/10/21 01:11:17;;;;;;;54.13;37.78;;;19.30;1.00;;;;;;5058763;28;20504;-62
2022/10/21 01:14:20;;;;;;;53.35;39.17;;;19.20;1.00;;;;;;5042640;28;20033;-62
2022/10/21 01:17:15;;;;;;;56.55;37.88;;;19.30;1.00;;;;;;5052408;28;20044;-62
2022/10/21 01:19:46;;;;;;;50.03;36.15;;;19.20;1.00;;;;;;5043098;28;20224;-62
2022/10/21 01:22:31;;;;;;;51.53;36.63;;;19.30;1.00;;;;;;5051442;28;20394;-62
2022/10/21 01:25:15;;;;;;;50.97;36.38;;;19.30;1.00;;;;;;5039000;28;20434;-62
2022/10/21 01:27:57;;;;;;;48.42;34.53;;;19.30;1.00;;;;;;5035257;28;20061;-62
2022/10/21 01:30:44;;;;;;;50.90;36.53;;;19.20;1.00;;;;;;5051151;28;20079;-62
2022/10/21 01:33:32;;;;;;;52.22;36.03;;;19.20;1.00;;;;;;5044127;28;20057;-62
2022/10/21 01:36:25;;;;;;;51.72;35.90;;;19.20;1.00;;;;;;5045387;28;20044;-62
2022/10/21 01:39:01;;;;;;;55.80;36.50;;;19.20;1.00;;;;;;5023216;28;20052;-62
2022/10/21 01:41:37;;;;;;;48.38;35.25;;;19.20;1.00;;;;;;5054398;28;20489;-62
2022/10/21 01:44:28;;;;;;;48.97;34.55;;;19.20;1.00;;;;;;5055157;28;20055;-62
2022/10/21 01:47:04;;;;;;;51.65;35.72;;;19.20;1.00;;;;;;5056156;28;20081;-62
2022/10/21 01:49:59;;;;;;;51.28;35.65;;;19.10;1.00;;;;;;5063215;28;20021;-62
2022/10/21 01:52:25;;;;;;;52.72;37.65;;;19.10;1.00;;;;;;5043725;28;20033;-62
2022/10/21 01:54:57;;;;;;;47.83;35.20;;;19.00;1.00;;;;;;5054843;28;20021;-62
2022/10/21 01:57:26;;;;;;;47.40;34.35;;;19.10;1.00;;;;;;5051845;28;20450;-62
2022/10/21 01:59:55;;;;;;;50.42;34.40;;;19.10;1.00;;;;;;5055910;28;20025;-62
2022/10/21 02:02:21;;;;;;;48.85;33.42;;;19.10;1.00;;;;;;5050896;28;20290;-62
2022/10/21 02:04:50;;;;;;;47.53;33.85;;;19.10;1.00;;;;;;5055025;28;20056;-62
2022/10/21 02:07:15;;;;;;;43.90;34.35;;;19.00;1.00;;;;;;5055162;28;20037;-62
2022/10/21 02:09:41;;;;;;;48.22;33.30;;;19.10;1.00;;;;;;5054580;28;20032;-62
2022/10/21 02:12:21;;;;;;;46.58;32.30;;;19.00;1.00;;;;;;5054025;28;20040;-62
2022/10/21 02:14:50;;;;;;;44.45;33.35;;;19.10;1.00;;;;;;5051745;28;20486;-62
2022/10/21 02:17:19;;;;;;;41.72;30.30;;;19.10;1.00;;;;;;5056206;28;20025;-62
2022/10/21 02:19:45;;;;;;;42.60;33.17;;;19.00;1.00;;;;;;5050932;28;20029;-62
2022/10/21 02:22:16;;;;;;;44.70;32.25;;;19.00;1.00;;;;;;5054624;28;20032;-63
2022/10/21 02:25:00;;;;;;;45.47;31.50;;;19.00;1.00;;;;;;5054611;28;20029;-62
2022/10/21 02:27:26;;;;;;;42.90;31.30;;;19.10;1.00;;;;;;5042144;28;20056;-62
2022/10/21 02:29:56;;;;;;;42.47;31.95;;;19.00;1.00;;;;;;5054493;28;20064;-62
2022/10/21 02:32:36;;;;;;;46.88;32.58;;;19.00;1.00;;;;;;5055222;28;20111;-62
2022/10/21 02:35:13;;;;;;;51.05;33.40;;;19.00;1.00;;;;;;5047782;28;20494;-62
2022/10/21 02:37:53;;;;;;;38.97;30.50;;;19.00;1.00;;;;;;5041024;28;20029;-62
2022/10/21 02:40:43;;;;;;;44.13;31.17;;;19.00;1.00;;;;;;5055558;28;20025;-62
2022/10/21 02:43:12;;;;;;;43.08;30.77;;;19.00;1.00;;;;;;5054217;28;20025;-62
2022/10/21 02:45:38;;;;;;;44.20;32.42;;;19.00;1.00;;;;;;5045147;28;20036;-62
2022/10/21 02:48:05;;;;;;;42.47;30.45;;;18.90;1.00;;;;;;5050009;28;20475;-62
2022/10/21 02:50:30;;;;;;;42.92;31.75;;;19.00;1.00;;;;;;5049942;28;20025;-62
2022/10/21 02:52:56;;;;;;;38.63;30.83;;;18.90;1.00;;;;;;5053112;28;20090;-62
2022/10/21 02:55:22;;;;;;;41.83;32.17;;;18.90;1.00;;;;;;5054595;28;20020;-62
2022/10/21 02:57:47;;;;;;;42.30;30.55;;;18.80;1.00;;;;;;5052796;28;20112;-62
2022/10/21 03:00:13;;;;;;;38.97;32.35;;;18.80;1.00;;;;;;5054746;28;20025;-62
2022/10/21 03:02:40;;;;;;;44.08;32.20;;;18.80;1.00;;;;;;5054029;28;20028;-62
2022/10/21 03:05:08;;;;;;;40.40;30.48;;;18.60;1.00;;;;;;5054052;28;20044;-62
2022/10/21 03:07:34;;;;;;;40.03;29.63;;;18.80;1.00;;;;;;5054744;28;20075;-62
2022/10/21 03:09:59;;;;;;;42.75;30.08;;;18.80;1.00;;;;;;5053283;28;20045;-62
2022/10/21 03:12:26;;;;;;;37.75;30.13;;;18.80;1.00;;;;;;5052732;28;20108;-62
2022/10/21 03:14:51;;;;;;;36.90;29.35;;;18.80;1.00;;;;;;5052564;28;20056;-63
2022/10/21 03:17:17;;;;;;;37.63;30.30;;;18.70;1.00;;;;;;5054624;28;20056;-62
2022/10/21 03:19:43;;;;;;;41.28;30.25;;;18.70;1.00;;;;;;5051034;28;20052;-62
2022/10/21 03:22:08;;;;;;;40.22;30.27;;;18.70;1.00;;;;;;5054335;28;20067;-62
2022/10/21 03:24:34;;;;;;;41.03;32.17;;;18.60;1.00;;;;;;5049168;28;20029;-62
2022/10/21 03:26:59;;;;;;;45.03;31.08;;;18.70;1.00;;;;;;5054421;28;20028;-62
2022/10/21 03:29:25;;;;;;;38.85;29.30;;;18.70;1.00;;;;;;5053414;28;20029;-62
2022/10/21 03:31:50;;;;;;;41.40;30.67;;;18.70;1.00;;;;;;5050173;28;20502;-62
2022/10/21 03:34:16;;;;;;;38.08;29.92;;;18.70;1.00;;;;;;5052157;28;20033;-62
2022/10/21 03:36:42;;;;;;;37.50;29.30;;;18.70;1.00;;;;;;5054256;28;20470;-62
2022/10/21 03:39:09;;;;;;;42.72;30.73;;;18.70;1.00;;;;;;5050497;28;20028;-62
2022/10/21 03:41:34;;;;;;;38.63;30.90;;;18.60;1.00;;;;;;5054603;28;20028;-62
2022/10/21 03:44:00;;;;;;;38.72;29.50;;;18.60;1.00;;;;;;5049196;28;20441;-62
2022/10/21 03:46:25;;;;;;;39.40;29.85;;;18.60;1.00;;;;;;5053984;28;20033;-62
2022/10/21 03:48:51;;;;;;;39.85;29.50;;;18.60;1.00;;;;;;5059221;28;20028;-62
2022/10/21 03:51:17;;;;;;;40.30;30.65;;;18.60;1.00;;;;;;5053847;28;20481;-62
2022/10/21 03:53:42;;;;;;;36.72;29.58;;;18.70;1.00;;;;;;5048835;28;20032;-62
2022/10/21 03:56:08;;;;;;;38.78;29.95;;;18.50;1.00;;;;;;5053873;28;20052;-62
2022/10/21 03:58:34;;;;;;;42.90;32.42;;;18.60;1.00;;;;;;5052713;28;20192;-62
2022/10/21 04:01:00;;;;;;;39.97;29.92;;;18.60;1.00;;;;;;5051534;28;20496;-62
2022/10/21 04:03:26;;;;;;;38.30;30.38;;;18.60;1.00;;;;;;5050672;28;20701;-62
2022/10/21 04:05:52;;;;;;;38.60;29.67;;;18.70;1.00;;;;;;5052911;28;20071;-62
2022/10/21 04:08:17;;;;;;;40.63;30.50;;;18.60;1.00;;;;;;5051228;28;20049;-62
2022/10/21 04:10:44;;;;;;;41.30;30.95;;;18.60;1.00;;;;;;5036236;28;20382;-62
2022/10/21 04:13:10;;;;;;;38.30;29.13;;;18.50;1.00;;;;;;5047092;28;20028;-62
2022/10/21 04:15:35;;;;;;;36.08;29.42;;;18.50;1.00;;;;;;5052319;28;20057;-62
2022/10/21 04:18:01;;;;;;;37.38;30.15;;;18.50;1.00;;;;;;5053463;28;20124;-63
2022/10/21 04:20:27;;;;;;;37.45;29.80;;;18.50;1.00;;;;;;5051952;28;20072;-62
2022/10/21 04:22:53;;;;;;;37.53;28.48;;;18.60;1.00;;;;;;5053295;28;20359;-62
2022/10/21 04:25:18;;;;;;;37.53;29.73;;;18.50;1.00;;;;;;5052536;28;20430;-62
2022/10/21 04:27:44;;;;;;;36.83;29.95;;;18.30;1.00;;;;;;5052458;28;20056;-62
2022/10/21 04:30:10;;;;;;;34.28;26.88;;;18.50;1.00;;;;;;5051656;28;20021;-62
2022/10/21 04:32:35;;;;;;;32.88;27.67;;;18.50;1.00;;;;;;5051724;28;20045;-62
2022/10/21 04:35:01;;;;;;;38.13;28.95;;;18.50;1.00;;;;;;5052463;28;20044;-62
2022/10/21 04:37:26;;;;;;;40.00;29.70;;;18.50;1.00;;;;;;5037226;28;20108;-62
2022/10/21 04:39:52;;;;;;;37.55;28.73;;;18.50;1.00;;;;;;5043232;28;20029;-62
2022/10/21 04:42:18;;;;;;;34.17;27.40;;;18.50;1.00;;;;;;5052552;28;20094;-62
2022/10/21 04:44:43;;;;;;;32.55;26.70;;;18.60;1.00;;;;;;5055508;28;20064;-62
2022/10/21 04:47:09;;;;;;;34.83;28.60;;;18.60;1.00;;;;;;5052017;28;20021;-62
2022/10/21 04:49:35;;;;;;;36.40;28.58;;;18.60;1.00;;;;;;5046801;28;20029;-62
2022/10/21 04:52:00;;;;;;;36.67;26.83;;;18.50;1.00;;;;;;5052124;28;20508;-62
2022/10/21 04:54:26;;;;;;;40.72;28.95;;;18.50;1.00;;;;;;5046655;28;20025;-62
2022/10/21 04:56:51;;;;;;;35.58;28.13;;;18.50;1.00;;;;;;5052843;28;20033;-62
2022/10/21 04:59:17;;;;;;;33.55;28.10;;;18.50;1.00;;;;;;5051742;28;20037;-62
2022/10/21 05:01:43;;;;;;;35.42;27.33;;;18.60;1.00;;;;;;5044996;28;20028;-62
2022/10/21 05:04:08;;;;;;;37.95;27.45;;;18.50;1.00;;;;;;5049216;28;20071;-62
2022/10/21 05:06:34;;;;;;;34.78;26.98;;;18.50;1.00;;;;;;5052445;28;20021;-62
2022/10/21 05:08:59;;;;;;;40.95;28.30;;;18.50;1.00;;;;;;5050509;28;20051;-62
2022/10/21 05:11:25;;;;;;;37.58;29.38;;;18.50;1.00;;;;;;5051504;28;20029;-62
2022/10/21 05:13:51;;;;;;;35.33;27.58;;;18.50;1.00;;;;;;5051586;28;20116;-62
2022/10/21 05:16:16;;;;;;;40.17;29.15;;;18.50;1.00;;;;;;5048002;28;20099;-62
2022/10/21 05:18:42;;;;;;;36.08;27.55;;;18.50;1.00;;;;;;5050391;28;20136;-62
2022/10/21 05:21:07;;;;;;;38.38;29.23;;;18.40;1.00;;;;;;5052858;28;20121;-62
2022/10/21 05:23:34;;;;;;;42.25;31.90;;;18.40;1.00;;;;;;5050962;28;20028;-62
2022/10/21 05:26:00;;;;;;;43.70;31.23;;;18.40;1.00;;;;;;5050808;28;20021;-62
2022/10/21 05:28:25;;;;;;;43.83;30.17;;;18.30;1.00;;;;;;5051402;28;20031;-62
2022/10/21 05:30:52;;;;;;;40.42;30.70;;;18.30;1.00;;;;;;5050677;28;20489;-62
2022/10/21 05:33:17;;;;;;;41.03;30.73;;;18.40;1.00;;;;;;5051216;28;20033;-62
2022/10/21 05:35:43;;;;;;;45.92;32.55;;;18.30;1.00;;;;;;5050316;28;20029;-62
2022/10/21 05:38:09;;;;;;;44.65;31.95;;;18.30;1.00;;;;;;5052147;28;20422;-62
2022/10/21 05:40:34;;;;;;;45.97;33.45;;;18.40;1.00;;;;;;5049788;28;20036;-62
2022/10/21 05:43:00;;;;;;;45.67;31.95;;;18.20;1.00;;;;;;5040998;28;20036;-62
2022/10/21 05:45:26;;;;;;;46.30;32.65;;;18.30;1.00;;;;;;5048738;28;20037;-62
2022/10/21 05:47:52;;;;;;;50.13;33.78;;;18.30;1.00;;;;;;5052142;28;20060;-62
2022/10/21 05:50:17;;;;;;;41.50;32.67;;;18.30;1.00;;;;;;5051020;28;20048;-62
2022/10/21 05:52:43;;;;;;;47.22;34.30;;;18.30;1.00;;;;;;5039518;28;20017;-62
2022/10/21 05:55:09;;;;;;;44.83;33.55;;;18.30;1.00;;;;;;5050636;28;20159;-62
2022/10/21 05:57:35;;;;;;;51.05;34.53;;;18.40;1.00;;;;;;5051816;28;20028;-62
2022/10/21 06:00:02;;;;;;;52.83;33.65;;;18.40;1.00;;;;;;5044793;28;20030;-62
2022/10/21 06:02:27;;;;;;;51.08;34.60;;;18.40;1.00;;;;;;5043893;28;20052;-62
2022/10/21 06:04:53;;;;;;;47.83;32.75;;;18.30;1.00;;;;;;5042811;28;20060;-62
2022/10/21 06:07:18;;;;;;;45.58;33.72;;;18.40;1.00;;;;;;5052151;28;20044;-62
2022/10/21 06:09:44;;;;;;;43.95;33.47;;;18.30;1.00;;;;;;5042847;28;20121;-62
2022/10/21 06:12:10;;;;;;;53.28;35.42;;;18.30;1.00;;;;;;5051752;28;20017;-62
2022/10/21 06:14:35;;;;;;;48.85;34.92;;;18.20;1.00;;;;;;5049870;28;20101;-62
2022/10/21 06:17:04;;;;;;;48.13;35.08;;;18.30;1.00;;;;;;5050845;28;20319;-62
2022/10/21 06:19:30;;;;;;;48.03;35.80;;;18.30;1.00;;;;;;5044491;28;20045;-62
2022/10/21 06:21:56;;;;;;;47.63;35.47;;;18.30;1.00;;;;;;5045796;28;20025;-62
2022/10/21 06:24:23;;;;;;;46.83;32.47;;;18.30;1.00;;;;;;5043219;28;20025;-62
2022/10/21 06:26:49;;;;;;;45.45;33.85;;;18.30;1.00;;;;;;5050302;28;20029;-62
2022/10/21 06:29:16;;;;;;;49.50;34.85;;;18.30;1.00;;;;;;5052320;28;20102;-62
2022/10/21 06:31:42;;;;;;;51.78;35.65;;;18.30;1.00;;;;;;5049862;28;20028;-62
2022/10/21 06:34:07;;;;;;;50.72;35.95;;;18.30;1.00;;;;;;5052877;28;20025;-62
2022/10/21 06:36:33;;;;;;;52.90;37.05;;;18.40;1.00;;;;;;5054771;28;20025;-62
2022/10/21 06:38:59;;;;;;;54.58;35.25;;;18.40;1.00;;;;;;5050411;28;20069;-51
2022/10/21 06:41:24;;;;;;;55.35;35.58;;;18.40;1.00;;;;;;5047586;28;20029;-62
2022/10/21 06:43:50;;;;;;;51.33;35.17;;;18.40;1.00;;;;;;5050048;28;20025;-62
2022/10/21 06:46:16;;;;;;;51.80;37.03;;;18.40;1.00;;;;;;5058023;28;20398;-63
2022/10/21 06:48:42;;;;;;;47.30;33.67;;;18.50;1.00;;;;;;5055373;28;20071;-62
2022/10/21 06:51:14;;;;;;;49.08;34.95;;;18.50;1.00;;;;;;5054482;28;20409;-62
2022/10/21 06:53:40;;;;;;;58.13;37.70;;;18.40;1.00;;;;;;5055404;28;20021;-62
2022/10/21 06:56:08;;;;;;;55.25;36.72;;;18.30;1.00;;;;;;5054255;28;20029;-62
2022/10/21 06:58:36;;;;;;;51.03;36.65;;;18.40;1.00;;;;;;5055159;28;20037;-62
2022/10/21 07:01:07;;;;;;;56.58;38.08;;;18.50;1.00;;;;;;5048295;28;20032;-62
2022/10/21 07:03:32;;;;;;;55.20;34.63;;;18.40;1.00;;;;;;5054621;28;20028;-62
2022/10/21 07:05:58;;;;;;;53.80;35.53;;;18.60;1.00;;;;;;5048430;28;20474;-62
2022/10/21 07:08:29;;;;;;;57.67;36.85;;;18.50;1.00;;;;;;5053298;28;20040;-63
2022/10/21 07:10:55;;;;;;;54.30;35.55;;;18.60;1.00;;;;;;5052696;28;20025;-62
2022/10/21 07:13:22;;;;;;;58.90;36.65;;;18.60;1.00;;;;;;5039654;28;20025;-62
2022/10/21 07:16:15;;;;;;;60.30;35.25;;;18.60;1.00;;;;;;5052912;28;20037;-62
2022/10/21 07:18:42;;;;;;;64.95;36.15;;;18.40;1.00;;;;;;5042804;28;20364;-62
2022/10/21 07:21:12;;;;;;;66.55;38.67;;;18.40;1.00;;;;;;5058968;28;20018;-62
2022/10/21 07:23:38;;;;;;;62.35;36.47;;;18.50;1.00;;;;;;5043288;28;20061;-62
2022/10/21 07:26:06;;;;;;;55.80;34.47;;;18.50;1.00;;;;;;5043463;28;20505;-61
2022/10/21 07:28:32;;;;;;;57.42;34.97;;;18.60;1.00;;;;;;5050684;28;20033;-61
2022/10/21 07:30:58;;;;;;;57.08;36.13;;;18.60;1.00;;;;;;5050810;28;20090;-62
2022/10/21 07:33:24;;;;;;;60.08;36.28;;;18.60;1.00;;;;;;5038789;28;20053;-61
2022/10/21 07:35:50;;;;;;;63.17;37.13;;;18.60;1.00;;;;;;5051846;28;20076;-61
2022/10/21 07:38:16;;;;;;;55.47;35.55;;;18.40;1.00;;;;;;5053333;28;20475;-61
2022/10/21 07:40:43;;;;;;;54.20;35.08;;;18.50;1.00;;;;;;5052021;28;20033;-61
2022/10/21 07:43:09;;;;;;;65.43;36.58;;;18.50;1.00;;;;;;5044575;28;20029;-61
2022/10/21 07:45:42;;;;;;;54.00;33.67;;;18.50;1.00;;;;;;5048512;28;20110;-61
2022/10/21 07:48:09;;;;;;;60.95;35.50;;;18.40;1.00;;;;;;5041707;28;20066;-61
2022/10/21 07:50:35;;;;;;;51.90;34.13;;;18.50;1.00;;;;;;5049492;28;20028;-61
2022/10/21 07:53:01;;;;;;;56.85;35.75;;;18.60;1.00;;;;;;5043671;28;20030;-61
2022/10/21 07:55:28;;;;;;;59.08;35.33;;;18.60;1.00;;;;;;5047137;28;20036;-61
2022/10/21 07:57:53;;;;;;;53.95;32.22;;;18.50;1.00;;;;;;5053136;28;20033;-61
2022/10/21 08:00:19;;;;;;;52.33;31.08;;;18.40;1.00;;;;;;5052750;28;20033;-62
2022/10/21 08:02:45;;;;;;;54.80;32.25;;;18.50;1.00;;;;;;5051349;28;20075;-63
2022/10/21 08:05:10;;;;;;;51.90;30.23;;;18.60;1.00;;;;;;5052143;28;20064;-68
2022/10/21 08:07:36;;;;;;;55.13;31.02;;;18.60;1.00;;;;;;5043087;28;20403;-68
2022/10/21 08:10:03;;;;;;;54.78;31.42;;;18.60;1.00;;;;;;5052855;28;20039;-70
2022/10/21 08:12:29;;;;;;;47.30;29.50;;;18.60;1.00;;;;;;5053018;28;20382;-68
2022/10/21 08:14:54;;;;;;;54.60;31.48;;;18.60;1.00;;;;;;5049298;28;20053;-68
2022/10/21 08:17:20;;;;;;;50.38;30.95;;;18.60;1.00;;;;;;5053424;28;20390;-62
2022/10/21 08:19:46;;;;;;;51.17;31.98;;;18.60;1.00;;;;;;5045642;28;20095;-62
2022/10/21 08:22:11;;;;;;;49.45;30.60;;;18.60;1.00;;;;;;5051752;28;20033;-62
2022/10/21 08:24:37;;;;;;;48.42;30.95;;;18.60;1.00;;;;;;5053691;28;20032;-62
2022/10/21 08:27:04;;;;;;;53.63;31.58;;;18.60;1.00;;;;;;5052363;28;20025;-63
2022/10/21 08:29:29;;;;;;;53.22;32.08;;;18.60;1.00;;;;;;5052535;28;20037;-63
2022/10/21 08:31:55;;;;;;;42.90;29.70;;;18.60;1.00;;;;;;5050154;28;20123;-63
2022/10/21 08:34:21;;;;;;;46.70;30.05;;;18.60;1.00;;;;;;5047420;28;20043;-63
2022/10/21 08:36:47;;;;;;;49.42;30.95;;;18.60;1.00;;;;;;5052379;28;20025;-63
2022/10/21 08:39:12;;;;;;;47.83;30.02;;;18.70;1.00;;;;;;5051841;28;20032;-63
2022/10/21 08:41:45;;;;;;;49.03;29.75;;;18.70;1.00;;;;;;5049684;28;20078;-63
2022/10/21 08:44:27;;;;;;;52.53;31.77;;;18.70;1.00;;;;;;5052316;28;20025;-63
2022/10/21 08:46:58;;;;;;;46.25;30.30;;;18.70;1.00;;;;;;5051790;28;20027;-63
2022/10/21 08:49:30;;;;;;;52.17;31.52;;;18.80;1.00;;;;;;5048633;28;20478;-63
2022/10/21 08:52:05;;;;;;;50.33;31.42;;;18.80;1.00;;;;;;5049825;28;20025;-63
2022/10/21 08:55:00;;;;;;;53.47;32.10;;;18.70;1.00;;;;;;5039514;28;20365;-63
2022/10/21 08:57:26;;;;;;;49.47;31.98;;;18.70;1.00;;;;;;5040528;28;20048;-60
2022/10/21 08:59:53;;;;;;;52.35;34.10;;;18.80;1.00;;;;;;5047202;28;20398;-63
2022/10/21 09:02:25;;;;;;;50.80;32.60;;;18.80;1.00;;;;;;5038603;28;20036;-63
2022/10/21 09:05:14;;;;;;;53.95;34.78;;;18.90;1.00;;;;;;5046748;28;20494;-63
2022/10/21 09:08:02;;;;;;;47.33;30.50;;;19.00;1.00;;;;;;5060858;28;20524;-63
2022/10/21 09:10:52;;;;;;;46.10;30.00;;;19.10;1.00;;;;;;5036443;28;20025;-60
2022/10/21 09:13:50;;;;;;;46.72;28.90;;;19.10;1.00;;;;;;5049235;28;20391;-60
2022/10/21 09:16:38;;;;;;;44.78;28.98;;;19.00;1.00;;;;;;5051391;28;20041;-60
2022/10/21 09:19:17;;;;;;;46.25;29.67;;;19.00;1.00;;;;;;5050195;28;20045;-60
2022/10/21 09:22:01;;;;;;;46.13;27.55;;;19.00;1.00;;;;;;5046525;28;20025;-60
2022/10/21 09:24:47;;;;;;;42.13;29.17;;;19.10;1.00;;;;;;5052731;28;20025;-61
2022/10/21 09:27:13;;;;;;;37.08;28.02;;;19.10;1.00;;;;;;5051582;28;20387;-61
2022/10/21 09:29:53;;;;;;;37.38;27.15;;;19.10;1.00;;;;;;5043253;28;20028;-61
2022/10/21 09:32:26;;;;;;;41.08;28.52;;;19.20;1.00;;;;;;5043616;28;20022;-61
2022/10/21 09:35:12;;;;;;;42.77;29.20;;;19.10;1.00;;;;;;5040156;28;20040;-61
2022/10/21 09:38:08;;;;;;;36.13;27.20;;;19.20;1.00;;;;;;5038855;28;20345;-61
2022/10/21 09:40:34;;;;;;;34.80;26.63;;;19.20;1.00;;;;;;5047200;28;20501;-59
2022/10/21 09:43:00;;;;;;;35.70;26.50;;;19.10;1.00;;;;;;5052225;28;20096;-60
2022/10/21 09:45:37;;;;;;;34.38;26.92;;;19.00;1.00;;;;;;5038378;28;20135;-60
2022/10/21 09:48:46;;;;;;;35.85;26.70;;;19.10;1.00;;;;;;5052173;28;20104;-60
2022/10/21 09:51:17;;;;;;;38.50;27.55;;;19.10;1.00;;;;;;5051499;28;20506;-60
2022/10/21 09:53:58;;;;;;;36.67;26.13;;;19.20;1.00;;;;;;5052623;28;20029;-60
2022/10/21 09:56:44;;;;;;;33.88;27.00;;;19.10;1.00;;;;;;5051332;28;20033;-60
2022/10/21 09:59:12;;;;;;;30.48;25.70;;;19.10;1.00;;;;;;5052383;28;20040;-60
2022/10/21 10:01:40;;;;;;;32.35;25.98;;;19.20;1.00;;;;;;5051535;28;20039;-60
2022/10/21 10:04:29;;;;;;;34.10;25.92;;;19.10;1.00;;;;;;5056059;28;20029;-60
2022/10/21 10:06:56;;;;;;;32.35;26.05;;;19.20;1.00;;;;;;5055805;28;20052;-61
2022/10/21 10:09:30;;;;;;;33.88;25.17;;;19.30;1.00;;;;;;5056190;28;20487;-61
2022/10/21 10:12:01;;;;;;;31.67;24.13;;;19.40;1.00;;;;;;5037821;28;20029;-60
2022/10/21 10:14:47;;;;;;;34.97;25.27;;;19.40;1.00;;;;;;5056215;28;20037;-60
2022/10/21 10:17:35;;;;;;;29.08;24.23;;;19.40;1.00;;;;;;5052506;28;20025;-60
2022/10/21 10:20:07;;;;;;;32.38;25.05;;;19.40;1.00;;;;;;5044514;28;20037;-60
2022/10/21 10:22:41;;;;;;;31.85;24.75;;;19.30;1.00;;;;;;5054213;28;20021;-60
2022/10/21 10:25:10;;;;;;;30.15;24.17;;;19.30;1.00;;;;;;5056088;28;20039;-60
2022/10/21 10:27:45;;;;;;;33.20;24.77;;;19.30;1.00;;;;;;5054995;28;20112;-60
2022/10/21 10:30:15;;;;;;;30.65;24.02;;;19.20;1.00;;;;;;5055615;28;20437;-60
2022/10/21 10:32:42;;;;;;;28.10;24.00;;;19.20;1.00;;;;;;5039377;28;20029;-60
2022/10/21 10:35:20;;;;;;;33.92;26.27;;;19.20;1.00;;;;;;5048251;28;20021;-60
2022/10/21 10:37:47;;;;;;;32.70;24.10;;;19.20;1.00;;;;;;5054923;28;20497;-60
2022/10/21 10:40:22;;;;;;;29.33;23.67;;;19.30;1.00;;;;;;5055609;28;20059;-60
2022/10/21 10:42:59;;;;;;;29.38;22.83;;;19.20;1.00;;;;;;5053669;28;20036;-60
2022/10/21 10:45:25;;;;;;;32.03;23.60;;;19.30;1.00;;;;;;5055542;28;20021;-60
2022/10/21 10:48:02;;;;;;;29.58;23.00;;;19.30;1.00;;;;;;5048459;28;20497;-60
2022/10/21 10:50:36;;;;;;;28.05;22.02;;;19.30;1.00;;;;;;5055542;28;20017;-60
2022/10/21 10:53:27;;;;;;;28.83;22.75;;;19.20;1.00;;;;;;5053050;28;20068;-60
2022/10/21 10:55:58;;;;;;;30.80;23.33;;;19.20;1.00;;;;;;5049855;28;20069;-60
2022/10/21 10:58:26;;;;;;;27.65;22.52;;;19.30;1.00;;;;;;5053439;28;20045;-60
2022/10/21 11:00:56;;;;;;;28.83;22.73;;;19.30;1.00;;;;;;5051815;28;20029;-58
2022/10/21 11:03:32;;;;;;;27.58;22.20;;;19.30;1.00;;;;;;5049000;28;20394;-55
2022/10/21 11:06:12;;;;;;;26.83;21.52;;;19.40;1.00;;;;;;5054973;28;20033;-57
2022/10/21 11:08:42;;;;;;;27.25;24.30;;;19.30;1.00;;;;;;5046809;28;20040;-55
2022/10/21 11:11:27;;;;;;;27.50;21.25;;;19.30;1.00;;;;;;5046101;28;20033;-56
2022/10/21 11:13:52;;;;;;;;;;;19.20;1.00;;;;;;5045055;28;20064;-55
2022/10/21 11:16:27;;;;;;;25.85;21.02;;;19.20;1.00;;;;;;5045408;28;20359;-57
2022/10/21 11:19:02;;;;;;;26.88;20.63;;;19.20;1.00;;;;;;5051868;28;20512;-55
2022/10/21 11:21:36;;;;;;;28.88;23.13;;;19.30;1.00;;;;;;5054276;28;20057;-52
2022/10/21 11:24:05;;;;;;;;;;;19.30;1.00;;;;;;5045114;28;20060;-56
2022/10/21 11:26:48;;;;;;;27.10;22.08;;;19.30;1.00;;;;;;5050907;28;20366;-57
2022/10/21 11:30:08;;;;;;;24.02;20.98;;;19.40;1.00;;;;;;5047308;28;20029;-54
2022/10/21 11:32:48;;;;;;;26.38;20.08;;;19.40;1.00;;;;;;5007505;28;20335;-56
2022/10/21 11:35:43;;;;;;;29.90;21.42;;;19.30;1.00;;;;;;5035268;28;20482;-56
2022/10/21 11:38:14;;;;;;;24.90;20.55;;;19.30;1.00;;;;;;5042682;28;20045;-56
2022/10/21 11:40:47;;;;;;;28.00;20.30;;;19.30;1.00;;;;;;5054974;28;20086;-56
2022/10/21 11:43:24;;;;;;;31.23;20.80;;;19.30;1.00;;;;;;5052389;28;20040;-57
2022/10/21 11:46:06;;;;;;;24.08;20.35;;;19.40;1.00;;;;;;5050054;28;20060;-56
2022/10/21 11:48:31;;;;;;;26.90;20.75;;;19.40;1.00;;;;;;5047773;28;20116;-56
2022/10/21 11:51:30;;;;;;;27.42;20.98;;;19.40;1.00;;;;;;5054300;28;20064;-56
2022/10/21 11:54:23;;;;;;;24.95;20.15;;;19.40;1.00;;;;;;5051338;28;20021;-57
2022/10/21 11:56:55;;;;;;;23.02;19.33;;;19.40;1.00;;;;;;5047949;28;20029;-53
2022/10/21 11:59:38;;;;;;;24.67;20.35;;;19.60;1.00;;;;;;5049253;28;20048;-56
2022/10/21 12:02:15;;;;;;;24.90;19.27;;;19.60;1.00;;;;;;5042571;28;20490;-54
2022/10/21 12:05:06;;;;;;;22.38;19.42;;;19.60;1.00;;;;;;5052393;28;20037;-56
2022/10/21 12:07:49;;;;;;;24.30;19.83;;;19.50;1.00;;;;;;5052787;28;20025;-54
2022/10/21 12:10:30;;;;;;;25.02;18.65;;;19.50;1.00;;;;;;5054247;28;20029;-55
2022/10/21 12:13:01;;;;;;;22.85;18.52;;;19.40;1.00;;;;;;5042826;28;20044;-54
2022/10/21 12:15:54;;;;;;;25.63;19.17;;;19.40;1.00;;;;;;5050895;28;20057;-54
2022/10/21 12:18:22;;;;;;;29.77;18.88;;;19.50;1.00;;;;;;5045808;28;20080;-55
2022/10/21 12:20:52;;;;;;;25.05;19.17;;;19.50;1.00;;;;;;5053705;28;20024;-52
2022/10/21 12:23:22;;;;;;;24.50;17.58;;;19.50;1.00;;;;;;5048164;28;20041;-55
2022/10/21 12:25:56;;;;;;;22.35;18.30;;;19.60;1.00;;;;;;5052427;28;20056;-56
2022/10/21 12:28:47;;;;;;;21.77;17.42;;;19.60;1.00;;;;;;5052202;28;20027;-55
2022/10/21 12:31:50;;;;;;;20.42;17.95;;;19.50;1.00;;;;;;5053668;28;20374;-56
2022/10/21 12:34:16;;;;;;;28.63;19.38;;;19.50;1.00;;;;;;5053110;28;20037;-56
2022/10/21 12:36:47;;;;;;;29.50;19.60;;;19.60;1.00;;;;;;5053805;28;20048;-57
2022/10/21 12:39:49;;;;;;;24.30;17.20;;;19.70;1.00;;;;;;5052287;28;20127;-55
2022/10/21 12:42:23;;;;;;;21.90;17.85;;;19.70;1.00;;;;;;5051864;28;20017;-54
2022/10/21 12:44:50;;;;;;;24.05;18.00;;;19.80;1.00;;;;;;5052527;28;20033;-55
2022/10/21 12:47:23;;;;;;;22.88;17.83;;;19.80;1.00;;;;;;5052568;28;20448;-57
2022/10/21 12:50:24;;;;;;;29.00;18.23;;;19.70;1.00;;;;;;5053212;28;20033;-54
2022/10/21 12:53:22;;;;;;;24.92;18.98;;;19.70;1.00;;;;;;5011064;28;20041;-53
2022/10/21 12:55:51;;;;;;;21.90;17.50;;;19.60;1.00;;;;;;5050845;28;20033;-54
2022/10/21 12:58:45;;;;;;;20.83;16.38;;;19.60;1.00;;;;;;5044546;28;20438;-55
2022/10/21 13:01:32;;;;;;;25.08;18.98;;;19.60;1.00;;;;;;5051407;28;20021;-55